Terminal Aerodrome Forecast
Issued by NWS

Home | Current Version | Previous Version | Text Only | Print | Product List | Glossary On
Versions: 1 2 3 4 5 6 7 8 9 10 11 12 13 14 15 16 17 18 19 20 21 22 23 24 25 26 27 28 29 30 31 32 33 34
000
FTUS45 KBOI 150534
TAFMYL
TAF
KMYL 150534Z 1506/1606 VRB03KT 1/2SM FZFG OVC001
     FM151700 20007KT 5SM BR SCT001 OVC150
     FM160200 24008KT 1/2SM -SN FZFG OVC003=

USA.gov is the U.S. government's official web portal to all federal, state and local government web resources and services.